Time;durP1;ratioP1;P1;durP2;ratioP2;P2;SDS_P1;SDS_P2;PMS_P1;PMS_P2;Temp;Humidity;BMP_temperature;BMP_pressure;BME280_temperature;BME280_humidity;BME280_pressure;Samples;Min_cycle;Max_cycle;Signal;HPM_P1;HPM_P2
2022/07/19 00:00:11;;;;;;;0.60;0.50;;;;;;;23.29;40.49;101726.09;16139665;19;130196;-50
2022/07/19 00:05:33;;;;;;;1.55;0.50;;;;;;;23.29;40.59;101728.88;16133677;19;130823;-51
2022/07/19 00:10:55;;;;;;;2.10;0.63;;;;;;;23.29;40.47;101720.50;16138168;19;129411;-49
2022/07/19 00:16:17;;;;;;;1.48;0.40;;;;;;;23.28;40.70;101713.22;16130152;19;129112;-50
2022/07/19 00:21:40;;;;;;;0.45;0.45;;;;;;;23.29;40.61;101714.09;16136976;19;129525;-50
2022/07/19 00:27:01;;;;;;;1.25;0.40;;;;;;;23.29;40.63;101714.09;16137409;19;129330;-51
2022/07/19 00:32:23;;;;;;;0.80;0.47;;;;;;;23.28;40.69;101709.59;16137697;19;129250;-53
2022/07/19 00:37:45;;;;;;;1.27;0.70;;;;;;;23.29;40.72;101706.53;16135283;19;130473;-53
2022/07/19 00:43:10;;;;;;;2.50;0.40;;;;;;;23.27;40.70;101703.16;16130509;19;129535;-51
2022/07/19 00:48:31;;;;;;;0.90;0.40;;;;;;;23.27;40.66;101700.38;16137104;19;129472;-49
2022/07/19 00:53:55;;;;;;;1.75;0.55;;;;;;;23.27;40.55;101693.94;16137904;19;132505;-51
2022/07/19 00:59:18;;;;;;;0.70;0.50;;;;;;;23.27;40.73;101692.00;16136905;19;129284;-52
2022/07/19 01:04:41;;;;;;;1.48;0.40;;;;;;;23.26;40.73;101687.53;16130113;19;129906;-56
2022/07/19 01:10:05;;;;;;;1.00;0.30;;;;;;;23.26;40.46;101695.91;16132737;19;129798;-51
2022/07/19 01:15:27;;;;;;;0.70;0.40;;;;;;;23.26;40.62;101690.31;16133922;19;130572;-51
2022/07/19 01:20:51;;;;;;;0.93;0.50;;;;;;;23.26;40.63;101681.09;16131950;19;129440;-51
2022/07/19 01:26:13;;;;;;;2.80;0.50;;;;;;;23.26;40.69;101687.53;16139055;19;129955;-46
2022/07/19 01:31:38;;;;;;;0.68;0.40;;;;;;;23.26;40.60;101681.09;16149844;19;129258;-49
2022/07/19 01:37:00;;;;;;;1.48;0.50;;;;;;;23.26;40.70;101678.31;16149242;19;129493;-50
2022/07/19 01:42:23;;;;;;;1.05;0.55;;;;;;;23.25;40.59;101685.84;16146405;19;129366;-52
2022/07/19 01:47:45;;;;;;;0.73;0.50;;;;;;;23.25;40.61;101685.84;16148227;19;129810;-49
2022/07/19 01:53:07;;;;;;;0.68;0.40;;;;;;;23.24;40.64;101678.56;16148454;19;129770;-53
2022/07/19 01:58:29;;;;;;;0.60;0.40;;;;;;;23.25;40.60;101685.00;16147353;19;129696;-52
2022/07/19 02:03:50;;;;;;;1.50;0.50;;;;;;;23.24;40.43;101678.56;16141650;19;129383;-51
2022/07/19 02:09:12;;;;;;;0.88;0.50;;;;;;;23.26;40.63;101683.88;16145356;19;129436;-52
2022/07/19 02:14:34;;;;;;;0.63;0.45;;;;;;;23.24;40.72;101663.75;16140268;19;129617;-53
2022/07/19 02:19:56;;;;;;;0.68;0.52;;;;;;;23.24;40.61;101673.00;16148674;19;129618;-51
2022/07/19 02:25:18;;;;;;;2.03;0.52;;;;;;;23.23;40.57;101665.72;16141029;19;130007;-51
2022/07/19 02:30:39;;;;;;;1.15;0.47;;;;;;;23.22;40.66;101664.03;16147395;19;129484;-49
2022/07/19 02:36:01;;;;;;;1.05;0.40;;;;;;;23.23;40.67;101665.72;16143580;19;129483;-49
2022/07/19 02:41:23;;;;;;;1.27;0.60;;;;;;;23.22;40.55;101668.75;16141548;19;129485;-50
2022/07/19 02:46:44;;;;;;;0.75;0.55;;;;;;;23.21;40.92;101665.13;16143469;19;131881;-49
2022/07/19 02:52:06;;;;;;;0.40;0.40;;;;;;;23.21;40.44;101656.75;16145809;19;129841;-51
2022/07/19 02:57:28;;;;;;;0.98;0.60;;;;;;;23.21;40.52;101651.16;16145356;19;130063;-46
2022/07/19 03:02:50;;;;;;;1.38;0.50;;;;;;;23.21;40.76;101645.59;16141976;19;129768;-46
2022/07/19 03:08:11;;;;;;;1.48;0.70;;;;;;;23.21;40.69;101642.78;16143593;19;129463;-53
2022/07/19 03:13:33;;;;;;;0.80;0.40;;;;;;;23.19;40.40;101645.88;16135420;19;129761;-51
2022/07/19 03:18:55;;;;;;;0.77;0.55;;;;;;;23.20;40.62;101641.09;16133408;19;130098;-50
2022/07/19 03:24:17;;;;;;;0.77;0.50;;;;;;;23.20;40.50;101632.72;16134508;19;129332;-49
2022/07/19 03:29:39;;;;;;;1.02;0.57;;;;;;;23.19;40.54;101636.63;16144007;19;129501;-50
2022/07/19 03:35:00;;;;;;;0.85;0.40;;;;;;;23.19;40.91;101625.47;16140242;19;129742;-48
2022/07/19 03:40:22;;;;;;;1.00;0.50;;;;;;;23.19;40.74;101631.03;16140227;19;129382;-48
2022/07/19 03:45:44;;;;;;;0.63;0.60;;;;;;;23.18;40.58;101634.94;16133105;19;129494;-50
2022/07/19 03:51:06;;;;;;;0.82;0.60;;;;;;;23.17;40.31;101616.50;16135715;19;130086;-49
2022/07/19 03:56:28;;;;;;;1.00;0.52;;;;;;;23.18;40.56;101629.34;16135934;19;129256;-48
2022/07/19 04:01:51;;;;;;;1.58;0.50;;;;;;;23.17;40.55;101627.66;16135815;19;129005;-46
2022/07/19 04:07:12;;;;;;;2.75;0.60;;;;;;;23.17;40.58;101636.03;16140628;19;129389;-52
2022/07/19 04:12:34;;;;;;;0.88;0.40;;;;;;;23.18;40.37;101626.56;16141257;19;129371;-49
2022/07/19 04:17:56;;;;;;;0.57;0.32;;;;;;;23.17;40.34;101627.66;16139810;19;129599;-47
2022/07/19 04:23:18;;;;;;;0.80;0.60;;;;;;;23.16;40.75;101624.03;16137691;19;129684;-51
2022/07/19 04:28:39;;;;;;;1.15;0.70;;;;;;;23.17;40.48;101627.66;16140017;19;130072;-47
2022/07/19 04:34:01;;;;;;;0.57;0.47;;;;;;;23.16;40.33;101626.84;16137742;19;129602;-51
2022/07/19 04:39:23;;;;;;;2.17;1.00;;;;;;;23.16;40.67;101625.97;16135006;19;130121;-52
2022/07/19 04:44:45;;;;;;;2.40;0.80;;;;;;;23.16;40.58;101631.56;16135070;19;129753;-51
2022/07/19 04:50:07;;;;;;;1.58;0.82;;;;;;;23.17;40.76;101627.66;16137416;19;128916;-49
2022/07/19 04:55:29;;;;;;;2.17;0.65;;;;;;;23.16;40.48;101628.75;16136259;19;129854;-47
2022/07/19 05:00:50;;;;;;;1.15;0.65;;;;;;;23.16;40.59;101631.56;16137287;19;129463;-48
2022/07/19 05:06:12;;;;;;;1.38;0.75;;;;;;;23.15;40.70;101641.03;16130787;19;130169;-51
2022/07/19 05:11:34;;;;;;;1.10;0.60;;;;;;;23.14;40.21;101634.63;16136355;19;130517;-55
2022/07/19 05:16:56;;;;;;;4.05;1.70;;;;;;;23.14;40.54;101642.16;16134564;19;129459;-51
2022/07/19 05:22:18;;;;;;;9.80;3.13;;;;;;;23.14;40.43;101631.00;16135050;19;129248;-53
2022/07/19 05:27:40;;;;;;;8.48;2.75;;;;;;;23.13;40.31;101641.31;16136723;19;130156;-53
2022/07/19 05:33:01;;;;;;;6.05;2.88;;;;;;;23.13;40.63;101643.25;16135309;19;129614;-56
2022/07/19 05:38:23;;;;;;;18.00;3.85;;;;;;;23.12;40.57;101644.38;16136354;19;129648;-55
2022/07/19 05:43:45;;;;;;;12.90;3.00;;;;;;;23.11;40.63;101640.72;16131989;19;129868;-55
2022/07/19 05:49:08;;;;;;;13.43;2.53;;;;;;;23.11;40.77;101643.50;16129796;19;129723;-55
2022/07/19 05:54:30;;;;;;;16.20;3.10;;;;;;;23.10;40.88;101635.41;16123904;19;129841;-55
2022/07/19 05:59:53;;;;;;;24.25;3.53;;;;;;;23.09;41.00;101636.50;16132018;19;129283;-55
2022/07/19 06:05:15;;;;;;;18.98;3.33;;;;;;;23.08;40.76;101640.41;16127669;19;129433;-56
2022/07/19 06:10:36;;;;;;;8.60;3.13;;;;;;;23.08;40.56;101630.06;16129438;19;132722;-55
2022/07/19 06:15:58;;;;;;;13.95;3.28;;;;;;;23.09;40.81;101637.34;16141209;19;131505;-56
2022/07/19 06:21:21;;;;;;;12.65;2.67;;;;;;;23.14;40.63;101645.78;16143385;19;129695;-56
2022/07/19 06:26:43;;;;;;;12.48;3.53;;;;;;;23.16;40.51;101637.13;16133111;19;128952;-55
2022/07/19 06:32:05;;;;;;;6.75;2.67;;;;;;;23.24;40.39;101635.84;16140617;19;131587;-55
2022/07/19 06:37:26;;;;;;;6.18;2.50;;;;;;;23.27;40.60;101644.53;16143627;19;129838;-54
2022/07/19 06:42:48;;;;;;;5.53;2.75;;;;;;;23.28;40.58;101640.63;16139736;19;129367;-53
2022/07/19 06:48:10;;;;;;;6.57;2.00;;;;;;;23.29;40.79;101645.13;16137090;19;129049;-54
2022/07/19 06:53:32;;;;;;;7.03;2.35;;;;;;;23.29;40.68;101642.31;16139685;19;129818;-55
2022/07/19 06:58:54;;;;;;;4.63;2.28;;;;;;;23.30;40.54;101638.44;16140239;19;130084;-52
2022/07/19 07:04:16;;;;;;;5.53;2.30;;;;;;;23.32;40.51;101635.41;16140623;19;129263;-53
2022/07/19 07:09:48;;;;;;;7.68;2.25;;;;;;;23.32;40.21;101641.81;16142416;19;132177;-55
2022/07/19 07:15:10;;;;;;;3.33;1.95;;;;;;;23.34;40.63;101638.75;16141057;19;129115;-51
2022/07/19 07:20:34;;;;;;;5.07;1.70;;;;;;;23.34;40.59;101641.53;16140284;19;128974;-52
2022/07/19 07:25:55;;;;;;;3.10;1.48;;;;;;;23.34;40.58;101630.38;16135908;19;128945;-53
2022/07/19 07:31:18;;;;;;;3.47;1.75;;;;;;;23.34;40.53;101634.03;16136374;19;129415;-52
2022/07/19 07:36:40;;;;;;;6.78;1.40;;;;;;;23.37;40.37;101624.28;16136595;19;130978;-52
2022/07/19 07:42:03;;;;;;;3.17;1.65;;;;;;;23.38;40.39;101627.94;16137794;19;130620;-51
2022/07/19 07:47:33;;;;;;;4.20;1.42;;;;;;;23.38;40.51;101620.38;16135284;19;129224;-51
2022/07/19 07:52:55;;;;;;;8.82;1.30;;;;;;;23.39;40.92;101619.28;16136979;19;129232;-52
2022/07/19 07:58:17;;;;;;;4.25;1.38;;;;;;;23.41;40.58;101624.59;16129008;19;129782;-50
2022/07/19 08:03:38;;;;;;;2.42;1.20;;;;;;;23.41;40.76;101611.47;16133056;19;129647;-55
2022/07/19 08:09:00;;;;;;;1.75;1.30;;;;;;;23.42;40.61;101602.00;16135611;19;129704;-54
2022/07/19 08:14:22;;;;;;;2.35;1.35;;;;;;;23.43;40.63;101598.09;16131601;19;129954;-54
2022/07/19 08:19:43;;;;;;;1.70;1.20;;;;;;;23.43;40.23;101592.53;16134703;19;129424;-54
2022/07/19 08:25:06;;;;;;;2.97;1.10;;;;;;;23.45;40.53;101586.66;16129217;19;129632;-49
2022/07/19 08:30:28;;;;;;;2.63;1.30;;;;;;;23.46;40.54;101591.97;16133855;19;129002;-49
2022/07/19 08:36:10;;;;;;;2.25;1.23;;;;;;;23.48;40.55;101591.72;16133775;19;131819;-51
2022/07/19 08:41:34;;;;;;;2.60;1.20;;;;;;;23.49;40.59;101590.63;16133606;19;129403;-52
2022/07/19 08:46:56;;;;;;;1.35;1.10;;;;;;;23.49;40.55;101577.50;16131393;19;129757;-49
2022/07/19 08:52:19;;;;;;;2.85;1.25;;;;;;;23.50;40.79;101586.72;16137415;19;130066;-53
2022/07/19 08:58:00;;;;;;;2.30;1.08;;;;;;;23.52;40.91;101578.91;16138639;19;129395;-50
2022/07/19 09:03:22;;;;;;;1.00;0.85;;;;;;;23.52;40.71;101581.69;16132011;19;129000;-52
2022/07/19 09:08:45;;;;;;;1.92;0.90;;;;;;;23.53;41.04;101580.59;16133195;19;129345;-53
2022/07/19 09:14:08;;;;;;;2.05;0.93;;;;;;;23.55;40.74;101567.22;16136160;19;129723;-52
2022/07/19 09:19:33;;;;;;;1.88;1.00;;;;;;;23.55;41.00;101567.22;16136988;19;129849;-53
2022/07/19 09:24:55;;;;;;;2.75;0.90;;;;;;;23.57;40.94;101570.59;16132748;19;129312;-52
2022/07/19 09:30:32;;;;;;;1.63;0.90;;;;;;;23.60;40.47;101572.03;16134218;19;129914;-54
2022/07/19 09:36:02;;;;;;;2.33;1.02;;;;;;;23.58;40.80;101555.53;16133274;19;129770;-51
2022/07/19 09:41:24;;;;;;;3.25;0.80;;;;;;;23.60;40.82;101550.53;16135425;19;130256;-53
2022/07/19 09:46:49;;;;;;;1.15;1.05;;;;;;;23.62;40.72;101550.25;16134303;19;129545;-52
2022/07/19 09:52:15;;;;;;;1.60;0.93;;;;;;;23.62;40.47;101545.53;16151031;19;130277;-51
2022/07/19 09:57:42;;;;;;;2.33;0.80;;;;;;;23.64;40.78;101539.69;16150880;19;130081;-53
2022/07/19 10:03:07;;;;;;;1.58;0.80;;;;;;;23.63;41.14;101533.22;16144072;19;129315;-52
2022/07/19 10:08:29;;;;;;;2.13;0.90;;;;;;;23.65;40.85;101527.41;16147151;19;131741;-51
2022/07/19 10:13:52;;;;;;;2.83;0.85;;;;;;;23.65;40.53;101516.22;16140770;19;130401;-52
2022/07/19 10:19:22;;;;;;;1.27;0.90;;;;;;;23.67;40.85;101519.59;16143301;19;129812;-54
2022/07/19 10:24:51;;;;;;;2.65;0.90;;;;;;;23.68;41.02;101509.25;16139237;19;129840;-50
2022/07/19 10:30:12;;;;;;;3.38;0.90;;;;;;;23.69;40.76;101516.53;16145123;19;129633;-52
2022/07/19 10:35:37;;;;;;;3.17;1.23;;;;;;;23.71;40.89;101509.56;16138118;19;129887;-54
2022/07/19 10:40:59;;;;;;;3.17;0.95;;;;;;;23.71;40.47;101503.97;16140817;19;130028;-53
2022/07/19 10:46:30;;;;;;;2.65;1.10;;;;;;;23.73;40.79;101496.16;16138526;19;129427;-53
2022/07/19 10:51:52;;;;;;;1.33;0.77;;;;;;;23.74;40.79;101488.66;16139914;19;130396;-52
2022/07/19 10:57:37;;;;;;;1.27;1.02;;;;;;;23.75;40.82;101487.53;16137648;19;128970;-52
2022/07/19 11:03:21;;;;;;;2.80;0.98;;;;;;;23.76;41.12;101475.22;16138578;19;131437;-51
2022/07/19 11:08:43;;;;;;;4.20;0.80;;;;;;;23.75;40.94;101474.41;16140829;19;129161;-49
2022/07/19 11:14:05;;;;;;;1.33;0.88;;;;;;;23.77;41.11;101457.34;16143641;19;129507;-50
2022/07/19 11:19:27;;;;;;;1.13;0.73;;;;;;;23.78;40.92;101448.72;16142550;19;129033;-52
2022/07/19 11:24:49;;;;;;;1.90;0.80;;;;;;;23.80;41.08;101451.25;16137003;19;129576;-52
2022/07/19 11:30:13;;;;;;;2.55;0.98;;;;;;;23.80;40.97;101440.91;16138248;19;130848;-53
2022/07/19 11:35:35;;;;;;;5.20;0.82;;;;;;;23.81;40.84;101434.22;16138483;19;129779;-53
2022/07/19 11:40:58;;;;;;;3.38;0.98;;;;;;;23.82;40.90;101416.31;16140483;19;129449;-53
2022/07/19 11:46:22;;;;;;;2.55;0.90;;;;;;;23.85;40.76;101425.28;16137975;19;129550;-48
2022/07/19 11:51:43;;;;;;;2.00;0.65;;;;;;;23.86;40.80;101421.38;16143063;19;128882;-54
2022/07/19 11:57:23;;;;;;;3.45;0.82;;;;;;;23.88;40.70;101410.78;16141623;19;129523;-53
2022/07/19 12:03:04;;;;;;;3.50;1.27;;;;;;;23.89;40.98;101404.09;16139529;19;129507;-57
2022/07/19 12:08:39;;;;;;;6.78;2.40;;;;;;;23.95;40.84;101403.84;16140996;19;129849;-64
2022/07/19 12:14:20;;;;;;;11.02;2.03;;;;;;;24.02;40.88;101389.63;16140972;19;129165;-60
2022/07/19 12:19:50;;;;;;;7.68;1.92;;;;;;;24.06;40.61;101387.94;16141709;19;129463;-56
2022/07/19 12:25:11;;;;;;;9.05;2.60;;;;;;;24.09;40.47;101386.56;16138955;19;129638;-58
2022/07/19 12:30:33;;;;;;;8.27;1.98;;;;;;;24.11;40.41;101374.00;16139225;19;130145;-59
2022/07/19 12:35:55;;;;;;;8.50;1.98;;;;;;;24.12;40.52;101364.50;16138822;19;129933;-52
2022/07/19 12:41:17;;;;;;;9.80;2.22;;;;;;;24.15;40.47;101365.06;16136788;19;130269;-54
2022/07/19 12:46:39;;;;;;;7.10;1.70;;;;;;;24.13;40.13;101351.34;16130648;19;131246;-53
2022/07/19 12:52:00;;;;;;;6.53;1.80;;;;;;;24.12;40.42;101349.69;16138941;19;131805;-51
2022/07/19 12:57:22;;;;;;;2.70;1.40;;;;;;;24.10;40.19;101343.53;16136887;19;129120;-54
2022/07/19 13:02:45;;;;;;;6.22;1.60;;;;;;;24.10;40.23;101333.19;16131255;19;130029;-53
2022/07/19 13:08:07;;;;;;;3.10;1.40;;;;;;;24.09;39.89;101330.69;16131679;19;130342;-53
2022/07/19 13:13:29;;;;;;;4.22;1.33;;;;;;;24.10;40.14;101332.34;16136223;19;129739;-48
2022/07/19 13:18:51;;;;;;;4.10;1.02;;;;;;;24.09;39.82;101334.28;16134894;19;130382;-49
2022/07/19 13:24:13;;;;;;;2.50;1.17;;;;;;;24.09;40.07;101325.09;16142570;19;130706;-52
2022/07/19 13:29:54;;;;;;;4.28;1.05;;;;;;;24.09;39.89;101317.53;16151549;19;130571;-53
2022/07/19 13:35:16;;;;;;;3.47;1.48;;;;;;;24.11;39.81;101303.28;16153653;19;131980;-53
2022/07/19 13:40:40;;;;;;;4.88;1.65;;;;;;;24.11;39.87;101303.28;16146375;19;129432;-53
2022/07/19 13:46:02;;;;;;;3.58;1.00;;;;;;;24.11;39.48;101295.72;16148197;19;129336;-53
2022/07/19 13:51:25;;;;;;;2.10;1.15;;;;;;;24.11;39.82;101284.56;16152299;19;129696;-55
2022/07/19 13:56:46;;;;;;;2.17;1.10;;;;;;;24.12;39.75;101274.22;16148945;19;129779;-54
2022/07/19 14:02:09;;;;;;;3.95;1.40;;;;;;;24.14;39.81;101271.16;16143863;19;130768;-55
2022/07/19 14:07:31;;;;;;;1.95;1.10;;;;;;;24.12;39.73;101255.50;16141111;19;129606;-53
2022/07/19 14:12:53;;;;;;;1.40;1.10;;;;;;;24.15;39.79;101256.06;16149436;19;129419;-54
2022/07/19 14:18:35;;;;;;;2.00;1.00;;;;;;;24.16;39.26;101260.53;16144824;19;129423;-54
2022/07/19 14:23:57;;;;;;;2.80;1.00;;;;;;;24.16;39.91;101247.38;16148525;19;128866;-54
2022/07/19 14:29:18;;;;;;;1.98;1.10;;;;;;;24.16;39.54;101244.59;16149097;19;129536;-51
2022/07/19 14:34:40;;;;;;;2.80;1.05;;;;;;;24.19;39.63;101234.81;16146403;19;131344;-54
2022/07/19 14:40:02;;;;;;;1.92;1.08;;;;;;;24.19;39.56;101229.22;16146106;19;129523;-51
2022/07/19 14:45:24;;;;;;;2.30;0.82;;;;;;;24.21;39.61;101210.22;16144617;19;128999;-54
2022/07/19 14:50:46;;;;;;;2.45;0.95;;;;;;;24.20;39.56;101209.38;16146618;19;129354;-57
2022/07/19 14:56:08;;;;;;;2.70;0.95;;;;;;;24.22;39.34;101195.13;16146721;19;129388;-57
2022/07/19 15:01:29;;;;;;;1.73;1.00;;;;;;;24.22;39.36;101190.38;16143589;19;131009;-56
2022/07/19 15:06:51;;;;;;;2.10;1.00;;;;;;;24.24;39.23;101182.59;16142188;19;130160;-56
2022/07/19 15:12:13;;;;;;;3.58;0.85;;;;;;;24.25;39.19;101175.84;16143321;19;130367;-57
2022/07/19 15:17:38;;;;;;;2.33;1.05;;;;;;;24.26;38.87;101182.31;16143610;19;129916;-55
2022/07/19 15:22:59;;;;;;;2.83;1.00;;;;;;;24.27;38.73;101172.81;16146124;19;129095;-53
2022/07/19 15:28:21;;;;;;;3.38;1.20;;;;;;;24.27;39.14;101168.03;16141146;19;130294;-53
2022/07/19 15:33:43;;;;;;;6.82;1.20;;;;;;;24.29;38.84;101155.72;16144729;19;129487;-52
2022/07/19 15:39:05;;;;;;;2.70;1.00;;;;;;;24.30;38.89;101152.69;16142821;19;130451;-52
2022/07/19 15:44:27;;;;;;;1.35;0.70;;;;;;;24.31;38.99;101145.13;16140036;19;129319;-51
2022/07/19 15:49:48;;;;;;;1.67;1.30;;;;;;;24.31;39.11;101142.31;16139253;19;131479;-53
2022/07/19 15:55:11;;;;;;;2.17;1.00;;;;;;;24.33;38.90;101137.28;16142100;19;129446;-52
2022/07/19 16:00:33;;;;;;;1.00;0.80;;;;;;;24.33;38.91;101135.31;16142140;19;129770;-54
2022/07/19 16:05:55;;;;;;;1.98;0.90;;;;;;;24.35;38.91;101115.47;16137832;19;129573;-54
2022/07/19 16:11:17;;;;;;;2.58;1.08;;;;;;;24.36;38.92;101112.41;16137844;19;129520;-48
2022/07/19 16:16:39;;;;;;;2.33;1.02;;;;;;;24.38;38.78;101112.09;16140798;19;129392;-52
2022/07/19 16:22:01;;;;;;;4.63;0.90;;;;;;;24.40;38.98;101112.66;16139868;19;129468;-53
2022/07/19 16:27:23;;;;;;;3.85;1.10;;;;;;;24.43;39.03;101100.94;16133123;19;130376;-52
2022/07/19 16:32:44;;;;;;;3.38;1.20;;;;;;;24.45;39.21;101090.31;16140674;19;129379;-52
2022/07/19 16:38:09;;;;;;;1.85;1.08;;;;;;;24.48;39.40;101083.28;16141143;19;131796;-53
2022/07/19 16:43:31;;;;;;;1.33;0.93;;;;;;;24.47;39.15;101085.28;16137969;19;131445;-54
2022/07/19 16:48:54;;;;;;;3.03;1.17;;;;;;;24.48;39.08;101070.16;16130558;19;131557;-54
2022/07/19 16:54:17;;;;;;;4.10;1.60;;;;;;;24.55;39.59;101076.28;16136202;19;129259;-52
2022/07/19 16:59:38;;;;;;;7.10;1.50;;;;;;;24.63;39.97;101060.03;16134797;19;130778;-53
2022/07/19 17:05:00;;;;;;;3.85;1.50;;;;;;;24.71;39.71;101056.66;16132993;19;131088;-53
2022/07/19 17:10:24;;;;;;;3.03;1.60;;;;;;;24.76;39.60;101048.25;16136572;19;129242;-51
2022/07/19 17:15:57;;;;;;;12.50;2.05;;;;;;;24.81;39.48;101056.63;16130959;19;129422;-52
2022/07/19 17:21:19;;;;;;;3.97;1.20;;;;;;;24.86;39.45;101052.97;16132245;19;129885;-52
2022/07/19 17:26:41;;;;;;;7.20;1.38;;;;;;;24.90;39.47;101044.88;16133281;19;129036;-51
2022/07/19 17:32:03;;;;;;;5.43;1.27;;;;;;;24.88;39.60;101040.38;16133887;19;129616;-53
2022/07/19 17:37:28;;;;;;;4.95;1.40;;;;;;;24.86;39.71;101048.19;16125688;19;129270;-52
2022/07/19 17:42:50;;;;;;;4.35;1.38;;;;;;;24.86;39.95;101050.16;16132817;19;129883;-51
2022/07/19 17:48:12;;;;;;;5.28;1.48;;;;;;;24.85;40.01;101046.56;16131821;19;128909;-56
2022/07/19 17:53:33;;;;;;;5.43;1.25;;;;;;;24.87;40.07;101043.44;16134628;19;130330;-53
2022/07/19 17:58:55;;;;;;;5.07;1.58;;;;;;;24.87;40.29;101035.88;16135523;19;129940;-53
2022/07/19 18:04:17;;;;;;;3.53;1.30;;;;;;;24.86;40.09;101037.00;16130781;19;129772;-53
2022/07/19 18:09:39;;;;;;;8.25;1.20;;;;;;;24.85;40.45;101029.75;16135847;19;129388;-53
2022/07/19 18:15:00;;;;;;;3.65;1.10;;;;;;;24.84;40.84;101028.09;16150538;19;129057;-50
2022/07/19 18:20:22;;;;;;;4.28;1.08;;;;;;;24.84;40.70;101033.69;16150233;19;130600;-53
2022/07/19 18:25:44;;;;;;;11.90;1.42;;;;;;;24.82;40.66;101035.91;16144424;19;129621;-52
2022/07/19 18:31:06;;;;;;;9.15;1.60;;;;;;;24.78;40.61;101029.22;16142277;19;129883;-54
2022/07/19 18:36:28;;;;;;;4.97;1.20;;;;;;;24.75;40.63;101032.56;16145123;19;131424;-53
2022/07/19 18:41:50;;;;;;;6.15;1.17;;;;;;;24.72;40.54;101027.56;16145022;19;129364;-52
2022/07/19 18:47:14;;;;;;;3.78;1.02;;;;;;;24.69;40.56;101030.94;16140589;19;130519;-52
2022/07/19 18:52:35;;;;;;;6.00;0.75;;;;;;;24.67;40.67;101034.03;16142266;19;130170;-51
2022/07/19 18:57:57;;;;;;;9.00;0.93;;;;;;;24.65;40.35;101029.81;16140472;19;129362;-52
2022/07/19 19:03:19;;;;;;;4.80;1.02;;;;;;;24.64;40.96;101033.75;16140809;19;129206;-52
2022/07/19 19:08:41;;;;;;;3.20;0.98;;;;;;;24.64;40.54;101039.34;16138936;19;129360;-52
2022/07/19 19:14:03;;;;;;;2.88;0.95;;;;;;;24.62;40.82;101041.56;16142570;19;132887;-53
2022/07/19 19:19:25;;;;;;;1.55;0.90;;;;;;;24.60;40.64;101041.03;16134304;19;130785;-54
2022/07/19 19:24:46;;;;;;;1.48;0.90;;;;;;;24.58;40.70;101053.34;16131923;19;130086;-52
2022/07/19 19:30:09;;;;;;;2.08;0.80;;;;;;;24.57;40.39;101048.88;16136943;19;130080;-53
2022/07/19 19:35:34;;;;;;;3.13;0.90;;;;;;;24.57;40.76;101057.28;16142051;19;129796;-53
2022/07/19 19:40:56;;;;;;;2.40;0.88;;;;;;;24.56;40.64;101060.34;16142849;19;129506;-52
2022/07/19 19:46:19;;;;;;;1.83;0.90;;;;;;;24.55;41.00;101059.50;16140051;19;129749;-54
2022/07/19 19:51:41;;;;;;;2.70;0.70;;;;;;;24.54;40.93;101060.63;16142323;19;129066;-54
2022/07/19 19:57:04;;;;;;;1.52;0.75;;;;;;;24.54;40.84;101062.59;16136011;19;129538;-53
2022/07/19 20:02:26;;;;;;;2.83;0.73;;;;;;;24.52;41.01;101065.66;16131651;19;130560;-53
2022/07/19 20:07:48;;;;;;;1.02;0.73;;;;;;;24.52;40.83;101070.44;16134323;19;129579;-55
2022/07/19 20:13:10;;;;;;;2.05;0.82;;;;;;;24.52;40.71;101065.66;16136002;19;130305;-52
2022/07/19 20:18:33;;;;;;;2.10;0.80;;;;;;;24.50;41.04;101079.09;16137820;19;129799;-52
2022/07/19 20:23:55;;;;;;;0.95;0.80;;;;;;;24.51;40.68;101069.56;16125713;19;129878;-51
2022/07/19 20:29:16;;;;;;;1.83;0.90;;;;;;;24.52;40.92;101071.25;16122313;19;129811;-54
2022/07/19 20:34:38;;;;;;;1.60;0.75;;;;;;;24.52;40.79;101071.25;16126395;19;130870;-55
2022/07/19 20:40:00;;;;;;;1.55;0.63;;;;;;;24.52;40.71;101074.06;16129036;19;130248;-50
2022/07/19 20:45:22;;;;;;;2.05;0.75;;;;;;;24.52;40.65;101076.84;16124359;19;130098;-53
2022/07/19 20:50:46;;;;;;;1.00;0.70;;;;;;;24.52;40.61;101074.06;16130461;19;130345;-54
2022/07/19 20:56:08;;;;;;;2.80;0.70;;;;;;;24.49;40.80;101076.59;16127973;19;130741;-55
2022/07/19 21:01:30;;;;;;;9.18;1.60;;;;;;;24.50;40.90;101070.69;16128844;19;129405;-54
2022/07/19 21:06:53;;;;;;;11.45;1.60;;;;;;;24.51;41.06;101075.16;16125904;19;129383;-54
2022/07/19 21:12:14;;;;;;;6.43;1.92;;;;;;;24.53;41.13;101078.53;16131466;19;130406;-48
2022/07/19 21:17:36;;;;;;;11.73;1.88;;;;;;;24.55;41.17;101070.69;16130711;19;130756;-51
2022/07/19 21:22:58;;;;;;;7.40;1.52;;;;;;;24.55;41.14;101081.88;16130948;19;129460;-51
2022/07/19 21:28:20;;;;;;;7.95;1.63;;;;;;;24.54;41.11;101074.63;16130485;19;128986;-49
2022/07/19 21:34:00;;;;;;;4.35;1.40;;;;;;;24.53;41.00;101072.94;16129227;19;129383;-50
2022/07/19 21:39:22;;;;;;;6.53;1.38;;;;;;;24.53;41.00;101075.72;16132769;19;129265;-52
2022/07/19 21:44:44;;;;;;;8.77;1.55;;;;;;;24.53;41.01;101075.72;16141865;19;129004;-51
2022/07/19 21:50:06;;;;;;;5.53;1.20;;;;;;;24.52;40.82;101068.47;16140533;19;129499;-48
2022/07/19 21:55:28;;;;;;;7.40;1.30;;;;;;;24.52;41.00;101070.44;16148070;19;129823;-49
2022/07/19 22:00:50;;;;;;;4.63;1.60;;;;;;;24.51;40.76;101075.16;16146009;19;130800;-51
2022/07/19 22:06:12;;;;;;;5.30;1.23;;;;;;;24.51;40.55;101068.75;16140057;19;130102;-49
2022/07/19 22:11:34;;;;;;;3.60;1.20;;;;;;;24.50;41.10;101072.66;16141200;19;130376;-51
2022/07/19 22:16:55;;;;;;;5.10;1.10;;;;;;;24.46;41.10;101083.59;16143581;19;130655;-52
2022/07/19 22:22:17;;;;;;;2.72;1.42;;;;;;;24.45;41.32;101084.72;16145467;19;129032;-52
2022/07/19 22:27:39;;;;;;;3.63;1.10;;;;;;;24.46;41.41;101089.19;16142094;19;128987;-51
2022/07/19 22:33:01;;;;;;;4.97;1.23;;;;;;;24.48;41.25;101083.28;16141731;19;128982;-52
2022/07/19 22:38:23;;;;;;;4.85;1.08;;;;;;;24.50;41.37;101090.28;16139779;19;131517;-52
2022/07/19 22:43:45;;;;;;;2.60;0.77;;;;;;;24.53;41.66;101092.50;16142202;19;129858;-50
2022/07/19 22:49:07;;;;;;;3.22;1.00;;;;;;;24.55;41.52;101097.84;16138057;19;129201;-48
2022/07/19 22:54:28;;;;;;;2.50;1.10;;;;;;;24.57;41.46;101089.97;16140493;19;129740;-50
2022/07/19 22:59:50;;;;;;;1.50;0.73;;;;;;;24.60;41.36;101088.59;16142875;19;129724;-50
2022/07/19 23:05:12;;;;;;;1.92;0.75;;;;;;;24.60;41.39;101095.00;16138276;19;130450;-51
2022/07/19 23:10:35;;;;;;;7.53;1.52;;;;;;;24.64;41.53;101090.53;16135823;19;129307;-47
2022/07/19 23:15:56;;;;;;;3.10;1.52;;;;;;;24.66;41.15;101093.03;16139455;19;129657;-49
2022/07/19 23:21:18;;;;;;;1.63;1.00;;;;;;;24.65;41.27;101092.22;16142068;19;129560;-49
2022/07/19 23:26:40;;;;;;;1.80;1.00;;;;;;;24.63;41.30;101183.97;16140001;19;129116;-49
2022/07/19 23:32:02;;;;;;;2.47;1.25;;;;;;;24.62;41.01;101190.69;16139405;19;131870;-49
2022/07/19 23:37:23;;;;;;;2.42;1.00;;;;;;;24.60;41.12;101122.97;16133150;19;129458;-49
2022/07/19 23:42:45;;;;;;;2.80;1.13;;;;;;;24.57;41.06;101157.97;16140904;19;129072;-49
2022/07/19 23:48:07;;;;;;;1.95;0.93;;;;;;;24.58;41.00;101154.03;16138406;19;129615;-47
2022/07/19 23:53:28;;;;;;;5.80;0.95;;;;;;;24.58;40.71;101156.00;16139232;19;130675;-48
2022/07/19 23:58:50;;;;;;;1.67;0.90;;;;;;;24.57;41.06;101146.78;16138108;19;130095;-47
